CAL331 RCKH-VHHX
Flight info
| Callsign | CAL331 |
|---|---|
| Flight time | N/A |
| Altitude | 34000 |
| Route | PARAS2A PARAS T7 WP521 G581 MAGOG |
| Aircraft | B77W/H-SDE1E2E3FGHIJ2J3J4J5M1RWXY/LB1D1 |
Departure
| Time | 2026-04-27 21:32 |
|---|---|
| Airport | Kaohsiung International Airport (RCKH) |
Arrival
| Time | N/A |
|---|---|
| Airport | Hong Kong International Airport Kai Tak (VHHX) |
| Time | Latitude | Longitude | Altitude | Speed | Heading |
|---|---|---|---|---|---|
| 2026-04-27 20:36 | 22.57273 | 120.33984 | 33 ft | 0 kts | 273° |
| 2026-04-27 21:16 | 22.57272 | 120.33996 | 33 ft | 4 kts | 274° |
| 2026-04-27 21:16 | 22.57269 | 120.34024 | 34 ft | 4 kts | 282° |
| 2026-04-27 21:16 | 22.57260 | 120.34049 | 32 ft | 4 kts | 329° |
| 2026-04-27 21:17 | 22.57253 | 120.34053 | 31 ft | 3 kts | 1° |
| 2026-04-27 21:17 | 22.57279 | 120.34054 | 31 ft | 4 kts | 1° |
| 2026-04-27 21:17 | 22.57305 | 120.34055 | 34 ft | 2 kts | 1° |
| 2026-04-27 21:17 | 22.57307 | 120.34055 | 34 ft | 0 kts | 1° |
| 2026-04-27 21:22 | 22.57337 | 120.34056 | 34 ft | 9 kts | 0° |
| 2026-04-27 21:22 | 22.57395 | 120.34038 | 34 ft | 9 kts | 315° |
| 2026-04-27 21:22 | 22.57412 | 120.33972 | 33 ft | 9 kts | 276° |
| 2026-04-27 21:22 | 22.57415 | 120.33930 | 33 ft | 0 kts | 273° |
| 2026-04-27 21:26 | 22.57415 | 120.33929 | 33 ft | 0 kts | 273° |
| 2026-04-27 21:26 | 22.57416 | 120.33921 | 33 ft | 2 kts | 273° |
| 2026-04-27 21:26 | 22.57417 | 120.33891 | 33 ft | 6 kts | 273° |
| 2026-04-27 21:26 | 22.57419 | 120.33845 | 33 ft | 7 kts | 272° |
| 2026-04-27 21:27 | 22.57421 | 120.33792 | 33 ft | 7 kts | 272° |
| 2026-04-27 21:27 | 22.57423 | 120.33733 | 32 ft | 8 kts | 274° |
| 2026-04-27 21:27 | 22.57450 | 120.33672 | 32 ft | 11 kts | 310° |
| 2026-04-27 21:27 | 22.57509 | 120.33608 | 32 ft | 12 kts | 315° |
| 2026-04-27 21:28 | 22.57570 | 120.33545 | 31 ft | 12 kts | 317° |
| 2026-04-27 21:28 | 22.57632 | 120.33506 | 31 ft | 6 kts | 352° |
| 2026-04-27 21:28 | 22.57641 | 120.33505 | 31 ft | 0 kts | 354° |
| 2026-04-27 21:28 | 22.57643 | 120.33505 | 31 ft | 1 kts | 357° |
| 2026-04-27 21:29 | 22.57645 | 120.33505 | 31 ft | 2 kts | 357° |
| 2026-04-27 21:29 | 22.57675 | 120.33504 | 30 ft | 7 kts | 358° |
| 2026-04-27 21:30 | 22.57734 | 120.33514 | 30 ft | 9 kts | 36° |
| 2026-04-27 21:30 | 22.57751 | 120.33578 | 31 ft | 6 kts | 88° |
| 2026-04-27 21:30 | 22.57751 | 120.33581 | 31 ft | 0 kts | 88° |
| 2026-04-27 21:32 | 22.57752 | 120.33616 | 31 ft | 22 kts | 89° |
| 2026-04-27 21:32 | 22.57740 | 120.34104 | 33 ft | 106 kts | 92° |
| 2026-04-27 21:32 | 22.57715 | 120.35177 | 40 ft | 173 kts | 90° |
| 2026-04-27 21:32 | 22.57686 | 120.36495 | 718 ft | 176 kts | 90° |
| 2026-04-27 21:33 | 22.57560 | 120.37837 | 1368 ft | 184 kts | 113° |
| 2026-04-27 21:33 | 22.56666 | 120.38787 | 2081 ft | 190 kts | 162° |
| 2026-04-27 21:33 | 22.55287 | 120.38705 | 2617 ft | 214 kts | 202° |
| 2026-04-27 21:33 | 22.54018 | 120.37796 | 3195 ft | 232 kts | 217° |
| 2026-04-27 21:34 | 22.52729 | 120.36600 | 3782 ft | 253 kts | 219° |
| 2026-04-27 21:34 | 22.51395 | 120.35326 | 4748 ft | 259 kts | 220° |
| 2026-04-27 21:34 | 22.50021 | 120.34015 | 5703 ft | 266 kts | 219° |
| 2026-04-27 21:34 | 22.48615 | 120.32674 | 6524 ft | 272 kts | 219° |
| 2026-04-27 21:35 | 22.47196 | 120.31322 | 6965 ft | 274 kts | 219° |
| 2026-04-27 21:35 | 22.45747 | 120.29946 | 7013 ft | 279 kts | 219° |
| 2026-04-27 21:35 | 22.44290 | 120.28563 | 7092 ft | 279 kts | 219° |
| 2026-04-27 21:35 | 22.42835 | 120.27182 | 7918 ft | 278 kts | 220° |
| 2026-04-27 21:36 | 22.41379 | 120.25803 | 9058 ft | 278 kts | 220° |
| 2026-04-27 21:36 | 22.39935 | 120.24436 | 10069 ft | 281 kts | 221° |
| 2026-04-27 21:36 | 22.38433 | 120.23014 | 10811 ft | 296 kts | 221° |
| 2026-04-27 21:36 | 22.36805 | 120.21473 | 11079 ft | 326 kts | 221° |
| 2026-04-27 21:37 | 22.35012 | 120.19777 | 11305 ft | 356 kts | 221° |
| 2026-04-27 21:37 | 22.33095 | 120.17965 | 11898 ft | 371 kts | 221° |
| 2026-04-27 21:37 | 22.31162 | 120.16126 | 12706 ft | 375 kts | 223° |
| 2026-04-27 21:37 | 22.29546 | 120.13891 | 13368 ft | 384 kts | 242° |
| 2026-04-27 21:38 | 22.28694 | 120.11145 | 14225 ft | 386 kts | 257° |
| 2026-04-27 21:38 | 22.28149 | 120.08280 | 15064 ft | 390 kts | 257° |
| 2026-04-27 21:38 | 22.27569 | 120.05407 | 15916 ft | 393 kts | 256° |
| 2026-04-27 21:38 | 22.26958 | 120.02509 | 16737 ft | 398 kts | 256° |
| 2026-04-27 21:39 | 22.26340 | 119.99613 | 17543 ft | 402 kts | 256° |
| 2026-04-27 21:39 | 22.25703 | 119.96639 | 18327 ft | 407 kts | 256° |
| 2026-04-27 21:39 | 22.25064 | 119.93648 | 19011 ft | 411 kts | 256° |
| 2026-04-27 21:39 | 22.24417 | 119.90623 | 19720 ft | 414 kts | 256° |
| 2026-04-27 21:40 | 22.23776 | 119.87623 | 20418 ft | 417 kts | 256° |
| 2026-04-27 21:40 | 22.23122 | 119.84568 | 21115 ft | 420 kts | 256° |
| 2026-04-27 21:40 | 22.22460 | 119.81472 | 21816 ft | 423 kts | 256° |
| 2026-04-27 21:40 | 22.21793 | 119.78361 | 22516 ft | 426 kts | 257° |
| 2026-04-27 21:41 | 22.21121 | 119.75231 | 23172 ft | 430 kts | 257° |
| 2026-04-27 21:41 | 22.20437 | 119.72066 | 23767 ft | 433 kts | 256° |
| 2026-04-27 21:41 | 22.19749 | 119.68918 | 24286 ft | 437 kts | 256° |
| 2026-04-27 21:41 | 22.19044 | 119.65709 | 24788 ft | 440 kts | 256° |
| 2026-04-27 21:42 | 22.18332 | 119.62470 | 25300 ft | 444 kts | 256° |
| 2026-04-27 21:42 | 22.17616 | 119.59205 | 25807 ft | 447 kts | 256° |
| 2026-04-27 21:42 | 22.16898 | 119.55934 | 26299 ft | 450 kts | 256° |
| 2026-04-27 21:42 | 22.16281 | 119.52610 | 26784 ft | 454 kts | 261° |
| 2026-04-27 21:43 | 22.15944 | 119.49210 | 27281 ft | 457 kts | 266° |
| 2026-04-27 21:43 | 22.15865 | 119.45812 | 27749 ft | 460 kts | 268° |
| 2026-04-27 21:43 | 22.15800 | 119.42343 | 28189 ft | 463 kts | 268° |
| 2026-04-27 21:43 | 22.15726 | 119.38854 | 28607 ft | 467 kts | 267° |
| 2026-04-27 21:44 | 22.15641 | 119.35331 | 29003 ft | 470 kts | 267° |
| 2026-04-27 21:44 | 22.15547 | 119.31786 | 29389 ft | 472 kts | 267° |
| 2026-04-27 21:44 | 22.15451 | 119.28273 | 29785 ft | 474 kts | 267° |
| 2026-04-27 21:44 | 22.15351 | 119.24712 | 30289 ft | 472 kts | 267° |
| 2026-04-27 21:45 | 22.15251 | 119.21191 | 30876 ft | 467 kts | 268° |
| 2026-04-27 21:45 | 22.15152 | 119.17698 | 31415 ft | 465 kts | 268° |
| 2026-04-27 21:45 | 22.15053 | 119.14217 | 31891 ft | 463 kts | 268° |
| 2026-04-27 21:45 | 22.14966 | 119.10736 | 32363 ft | 462 kts | 270° |
| 2026-04-27 21:46 | 22.15067 | 119.07320 | 32836 ft | 460 kts | 274° |
| 2026-04-27 21:46 | 22.15472 | 119.03907 | 33327 ft | 458 kts | 278° |
| 2026-04-27 21:46 | 22.15941 | 119.00508 | 33845 ft | 455 kts | 278° |
| 2026-04-27 21:46 | 22.16379 | 118.97127 | 34257 ft | 454 kts | 278° |
| 2026-04-27 21:47 | 22.16791 | 118.93763 | 34596 ft | 454 kts | 278° |
| 2026-04-27 21:47 | 22.17196 | 118.90372 | 34896 ft | 454 kts | 278° |
| 2026-04-27 21:47 | 22.17590 | 118.87035 | 35257 ft | 453 kts | 278° |
| 2026-04-27 21:47 | 22.17989 | 118.83669 | 35665 ft | 450 kts | 278° |
| 2026-04-27 21:48 | 22.18386 | 118.80316 | 36008 ft | 450 kts | 278° |
| 2026-04-27 21:48 | 22.18786 | 118.76960 | 36212 ft | 452 kts | 278° |
| 2026-04-27 21:48 | 22.19188 | 118.73582 | 36396 ft | 454 kts | 278° |
| 2026-04-27 21:48 | 22.19592 | 118.70188 | 36631 ft | 455 kts | 278° |
| 2026-04-27 21:49 | 22.19989 | 118.66844 | 36916 ft | 454 kts | 278° |
| 2026-04-27 21:49 | 22.20388 | 118.63469 | 37239 ft | 452 kts | 278° |
| 2026-04-27 21:49 | 22.20786 | 118.60104 | 37581 ft | 450 kts | 278° |
| 2026-04-27 21:49 | 22.21181 | 118.56763 | 37863 ft | 449 kts | 278° |
| 2026-04-27 21:50 | 22.21968 | 118.50072 | 37933 ft | 452 kts | 278° |
| 2026-04-27 21:50 | 22.22741 | 118.43415 | 37925 ft | 441 kts | 278° |
| 2026-04-27 21:51 | 22.23500 | 118.36862 | 37933 ft | 438 kts | 278° |
| 2026-04-27 21:51 | 22.24253 | 118.30354 | 37935 ft | 438 kts | 278° |
| 2026-04-27 21:52 | 22.25006 | 118.23815 | 37941 ft | 439 kts | 278° |
| 2026-04-27 21:52 | 22.25761 | 118.17245 | 37941 ft | 441 kts | 278° |
| 2026-04-27 21:53 | 22.26500 | 118.10694 | 37941 ft | 443 kts | 277° |
| 2026-04-27 21:53 | 22.27201 | 118.04063 | 37939 ft | 444 kts | 277° |
| 2026-04-27 21:54 | 22.27911 | 117.97468 | 37938 ft | 445 kts | 277° |
| 2026-04-27 21:54 | 22.28674 | 117.90830 | 37937 ft | 445 kts | 277° |
| 2026-04-27 21:55 | 22.29442 | 117.84179 | 37938 ft | 445 kts | 277° |
| 2026-04-27 21:55 | 22.30196 | 117.77568 | 37939 ft | 445 kts | 277° |
| 2026-04-27 21:56 | 22.31322 | 117.67615 | 37936 ft | 444 kts | 277° |
| 2026-04-27 21:57 | 22.32068 | 117.60990 | 37939 ft | 443 kts | 277° |
| 2026-04-27 21:57 | 22.32807 | 117.54414 | 37936 ft | 443 kts | 277° |
| 2026-04-27 21:58 | 22.33319 | 117.47785 | 37939 ft | 443 kts | 270° |
| 2026-04-27 21:58 | 22.33188 | 117.41266 | 37917 ft | 422 kts | 270° |
| 2026-04-27 21:58 | 22.33116 | 117.38155 | 37910 ft | 407 kts | 270° |
| 2026-04-27 21:59 | 22.33049 | 117.35090 | 37937 ft | 407 kts | 270° |
| 2026-04-27 21:59 | 22.32929 | 117.28963 | 37940 ft | 407 kts | 270° |
| 2026-04-27 22:00 | 22.32815 | 117.22881 | 37937 ft | 405 kts | 270° |
| 2026-04-27 22:00 | 22.32702 | 117.16837 | 37943 ft | 404 kts | 270° |
| 2026-04-27 22:01 | 22.32586 | 117.10756 | 37952 ft | 408 kts | 270° |
| 2026-04-27 22:01 | 22.32465 | 117.04523 | 37953 ft | 421 kts | 270° |
| 2026-04-27 22:02 | 22.32339 | 116.98127 | 37953 ft | 433 kts | 270° |
| 2026-04-27 22:02 | 22.32205 | 116.91545 | 37949 ft | 443 kts | 270° |
| 2026-04-27 22:03 | 22.32065 | 116.84838 | 37944 ft | 447 kts | 270° |
| 2026-04-27 22:03 | 22.31923 | 116.78154 | 37924 ft | 448 kts | 269° |
| 2026-04-27 22:04 | 22.31777 | 116.71416 | 37937 ft | 447 kts | 269° |
| 2026-04-27 22:04 | 22.31630 | 116.64732 | 37937 ft | 447 kts | 269° |
| 2026-04-27 22:05 | 22.31433 | 116.55945 | 37943 ft | 445 kts | 269° |
| 2026-04-27 22:05 | 22.31303 | 116.50304 | 37713 ft | 441 kts | 269° |
| 2026-04-27 22:05 | 22.31227 | 116.46989 | 37266 ft | 443 kts | 269° |
| 2026-04-27 22:05 | 22.31112 | 116.42070 | 36360 ft | 452 kts | 269° |
| 2026-04-27 22:06 | 22.30965 | 116.35849 | 35345 ft | 459 kts | 269° |
| 2026-04-27 22:06 | 22.30881 | 116.32377 | 34769 ft | 463 kts | 269° |
| 2026-04-27 22:06 | 22.30797 | 116.28916 | 34187 ft | 467 kts | 269° |
| 2026-04-27 22:06 | 22.30624 | 116.21859 | 32980 ft | 471 kts | 269° |
| 2026-04-27 22:07 | 22.30514 | 116.17460 | 32339 ft | 472 kts | 269° |
| 2026-04-27 22:07 | 22.30424 | 116.13880 | 32151 ft | 477 kts | 269° |
| 2026-04-27 22:07 | 22.30364 | 116.11515 | 32047 ft | 478 kts | 269° |
| 2026-04-27 22:07 | 22.30241 | 116.06743 | 31935 ft | 476 kts | 269° |
| 2026-04-27 22:08 | 22.30149 | 116.03163 | 31939 ft | 475 kts | 269° |
| 2026-04-27 22:08 | 22.29993 | 115.97210 | 31931 ft | 477 kts | 269° |
| 2026-04-27 22:09 | 22.29803 | 115.90042 | 31928 ft | 477 kts | 269° |
| 2026-04-27 22:09 | 22.29610 | 115.82865 | 31929 ft | 477 kts | 269° |
| 2026-04-27 22:10 | 22.29374 | 115.75741 | 31928 ft | 477 kts | 268° |
| 2026-04-27 22:10 | 22.29099 | 115.68573 | 31928 ft | 477 kts | 268° |
| 2026-04-27 22:11 | 22.28826 | 115.61416 | 31929 ft | 476 kts | 268° |
| 2026-04-27 22:11 | 22.28559 | 115.54352 | 31704 ft | 465 kts | 268° |
| 2026-04-27 22:11 | 22.28429 | 115.50948 | 31041 ft | 443 kts | 268° |
| 2026-04-27 22:12 | 22.28302 | 115.47624 | 29163 ft | 449 kts | 268° |
| 2026-04-27 22:12 | 22.28171 | 115.44141 | 27388 ft | 473 kts | 268° |
| 2026-04-27 22:12 | 22.28038 | 115.40659 | 26219 ft | 456 kts | 268° |
| 2026-04-27 22:12 | 22.27906 | 115.37271 | 25446 ft | 455 kts | 268° |
| 2026-04-27 22:13 | 22.27775 | 115.33896 | 25150 ft | 443 kts | 268° |
| 2026-04-27 22:13 | 22.27646 | 115.30622 | 24916 ft | 430 kts | 268° |
| 2026-04-27 22:13 | 22.27519 | 115.27378 | 24692 ft | 431 kts | 268° |
| 2026-04-27 22:13 | 22.27392 | 115.24157 | 24468 ft | 429 kts | 268° |
| 2026-04-27 22:14 | 22.27266 | 115.20989 | 24250 ft | 426 kts | 268° |
| 2026-04-27 22:14 | 22.27139 | 115.17790 | 24026 ft | 424 kts | 268° |
| 2026-04-27 22:14 | 22.27008 | 115.14613 | 23801 ft | 422 kts | 267° |
| 2026-04-27 22:14 | 22.26673 | 115.11471 | 23577 ft | 420 kts | 261° |
| 2026-04-27 22:15 | 22.26104 | 115.08409 | 23351 ft | 419 kts | 258° |
| 2026-04-27 22:15 | 22.25472 | 115.05341 | 23089 ft | 417 kts | 258° |
| 2026-04-27 22:15 | 22.24856 | 115.02272 | 22822 ft | 416 kts | 259° |
| 2026-04-27 22:15 | 22.24281 | 114.99214 | 22580 ft | 415 kts | 259° |
| 2026-04-27 22:16 | 22.23728 | 114.96154 | 22326 ft | 414 kts | 259° |
| 2026-04-27 22:16 | 22.23191 | 114.93105 | 22074 ft | 413 kts | 261° |
| 2026-04-27 22:16 | 22.22909 | 114.90035 | 21818 ft | 411 kts | 268° |
| 2026-04-27 22:16 | 22.22875 | 114.87015 | 21423 ft | 393 kts | 270° |
| 2026-04-27 22:17 | 22.22913 | 114.84110 | 20564 ft | 381 kts | 270° |
| 2026-04-27 22:17 | 22.22950 | 114.81278 | 19456 ft | 373 kts | 270° |
| 2026-04-27 22:17 | 22.22964 | 114.78525 | 18262 ft | 369 kts | 269° |
| 2026-04-27 22:17 | 22.22956 | 114.75758 | 16815 ft | 367 kts | 269° |
| 2026-04-27 22:18 | 22.22934 | 114.73007 | 15418 ft | 364 kts | 268° |
| 2026-04-27 22:18 | 22.22905 | 114.70335 | 14615 ft | 349 kts | 268° |
| 2026-04-27 22:18 | 22.22876 | 114.67847 | 14518 ft | 319 kts | 268° |
| 2026-04-27 22:18 | 22.22847 | 114.65490 | 14390 ft | 309 kts | 268° |
| 2026-04-27 22:19 | 22.22818 | 114.63202 | 14263 ft | 300 kts | 268° |
| 2026-04-27 22:19 | 22.22790 | 114.60986 | 14140 ft | 290 kts | 268° |
| 2026-04-27 22:19 | 22.22762 | 114.58841 | 14016 ft | 281 kts | 268° |
| 2026-04-27 22:19 | 22.22736 | 114.56758 | 13890 ft | 275 kts | 268° |
| 2026-04-27 22:20 | 22.22708 | 114.54670 | 13673 ft | 284 kts | 268° |
| 2026-04-27 22:20 | 22.22678 | 114.52514 | 13434 ft | 294 kts | 268° |
| 2026-04-27 22:20 | 22.22649 | 114.50307 | 13174 ft | 294 kts | 268° |
| 2026-04-27 22:20 | 22.22619 | 114.48102 | 12919 ft | 293 kts | 268° |
| 2026-04-27 22:21 | 22.22590 | 114.45900 | 12682 ft | 293 kts | 268° |
| 2026-04-27 22:21 | 22.22560 | 114.43726 | 12442 ft | 292 kts | 268° |
| 2026-04-27 22:21 | 22.22530 | 114.41523 | 12198 ft | 292 kts | 268° |
| 2026-04-27 22:21 | 22.22500 | 114.39325 | 11955 ft | 292 kts | 268° |
| 2026-04-27 22:22 | 22.22469 | 114.37128 | 11714 ft | 291 kts | 267° |
| 2026-04-27 22:22 | 22.22439 | 114.34944 | 11473 ft | 291 kts | 267° |
| 2026-04-27 22:22 | 22.22408 | 114.32785 | 11236 ft | 291 kts | 267° |
| 2026-04-27 22:22 | 22.22376 | 114.30602 | 10994 ft | 290 kts | 267° |
| 2026-04-27 22:23 | 22.22345 | 114.28418 | 10764 ft | 290 kts | 267° |
| 2026-04-27 22:23 | 22.22313 | 114.26246 | 10518 ft | 289 kts | 267° |
| 2026-04-27 22:23 | 22.22282 | 114.24083 | 10286 ft | 287 kts | 267° |
| 2026-04-27 22:23 | 22.22250 | 114.21949 | 10080 ft | 282 kts | 267° |
| 2026-04-27 22:24 | 22.22218 | 114.19847 | 9869 ft | 277 kts | 267° |
| 2026-04-27 22:24 | 22.22187 | 114.17806 | 9618 ft | 273 kts | 267° |
| 2026-04-27 22:24 | 22.22156 | 114.15770 | 9392 ft | 270 kts | 267° |
| 2026-04-27 22:24 | 22.22125 | 114.13752 | 9168 ft | 268 kts | 267° |
| 2026-04-27 22:25 | 22.22092 | 114.11743 | 8943 ft | 267 kts | 267° |
| 2026-04-27 22:25 | 22.22062 | 114.09738 | 8725 ft | 266 kts | 267° |
| 2026-04-27 22:25 | 22.22030 | 114.07741 | 8506 ft | 265 kts | 267° |
| 2026-04-27 22:25 | 22.21998 | 114.05748 | 8288 ft | 265 kts | 266° |
| 2026-04-27 22:26 | 22.21967 | 114.03787 | 8080 ft | 265 kts | 267° |
| 2026-04-27 22:26 | 22.21922 | 114.01789 | 7784 ft | 268 kts | 266° |
| 2026-04-27 22:26 | 22.21855 | 113.99770 | 7492 ft | 271 kts | 265° |
| 2026-04-27 22:26 | 22.21786 | 113.97724 | 7169 ft | 272 kts | 266° |
| 2026-04-27 22:27 | 22.21717 | 113.95684 | 6840 ft | 272 kts | 265° |
| 2026-04-27 22:27 | 22.21651 | 113.93679 | 6510 ft | 261 kts | 266° |
| 2026-04-27 22:27 | 22.21588 | 113.91755 | 6188 ft | 251 kts | 265° |
| 2026-04-27 22:27 | 22.21552 | 113.89918 | 5927 ft | 238 kts | 272° |
| 2026-04-27 22:28 | 22.22084 | 113.88284 | 5788 ft | 226 kts | 304° |
| 2026-04-27 22:28 | 22.23198 | 113.87227 | 5599 ft | 211 kts | 329° |
| 2026-04-27 22:28 | 22.24592 | 113.86720 | 5491 ft | 218 kts | 352° |
| 2026-04-27 22:28 | 22.26106 | 113.86849 | 5323 ft | 219 kts | 20° |
| 2026-04-27 22:29 | 22.27411 | 113.87620 | 5163 ft | 209 kts | 40° |
| 2026-04-27 22:29 | 22.28306 | 113.88788 | 4991 ft | 198 kts | 68° |
| 2026-04-27 22:29 | 22.28866 | 113.90138 | 4902 ft | 203 kts | 68° |
| 2026-04-27 22:29 | 22.29676 | 113.91393 | 4746 ft | 207 kts | 44° |
| 2026-04-27 22:30 | 22.30767 | 113.92421 | 4629 ft | 208 kts | 44° |
| 2026-04-27 22:30 | 22.31627 | 113.93612 | 4488 ft | 199 kts | 77° |
| 2026-04-27 22:30 | 22.31739 | 113.95088 | 4220 ft | 199 kts | 93° |
| 2026-04-27 22:30 | 22.31806 | 113.96596 | 3932 ft | 201 kts | 89° |
| 2026-04-27 22:31 | 22.31909 | 113.98092 | 3652 ft | 199 kts | 89° |
| 2026-04-27 22:31 | 22.32007 | 113.99571 | 3387 ft | 196 kts | 90° |
| 2026-04-27 22:31 | 22.32101 | 114.01021 | 3088 ft | 189 kts | 88° |
| 2026-04-27 22:31 | 22.32191 | 114.02403 | 2881 ft | 182 kts | 89° |
| 2026-04-27 22:32 | 22.32254 | 114.03721 | 2675 ft | 170 kts | 89° |
| 2026-04-27 22:32 | 22.32355 | 114.05045 | 2425 ft | 185 kts | 88° |
| 2026-04-27 22:32 | 22.32450 | 114.06402 | 2151 ft | 175 kts | 89° |
| 2026-04-27 22:32 | 22.32533 | 114.07663 | 1921 ft | 161 kts | 88° |
| 2026-04-27 22:33 | 22.32608 | 114.08850 | 1723 ft | 159 kts | 88° |
| 2026-04-27 22:33 | 22.32685 | 114.10048 | 1536 ft | 161 kts | 87° |
| 2026-04-27 22:33 | 22.32763 | 114.11245 | 1294 ft | 156 kts | 87° |
| 2026-04-27 22:33 | 22.32836 | 114.12376 | 1080 ft | 145 kts | 86° |
| 2026-04-27 22:34 | 22.32907 | 114.13466 | 911 ft | 147 kts | 86° |
| 2026-04-27 22:34 | 22.32977 | 114.14549 | 704 ft | 142 kts | 86° |
| 2026-04-27 22:34 | 22.33045 | 114.15601 | 553 ft | 144 kts | 86° |
| 2026-04-27 22:34 | 22.33106 | 114.16679 | 364 ft | 137 kts | 89° |
| 2026-04-27 22:35 | 22.33094 | 114.17736 | 406 ft | 146 kts | 86° |
| 2026-04-27 22:35 | 22.33001 | 114.18805 | 320 ft | 141 kts | 126° |
| 2026-04-27 22:35 | 22.32239 | 114.19494 | 570 ft | 146 kts | 147° |
| 2026-04-27 22:35 | 22.31347 | 114.20047 | 831 ft | 149 kts | 147° |
| 2026-04-27 22:36 | 22.30511 | 114.20681 | 1069 ft | 148 kts | 139° |
| 2026-04-27 22:36 | 22.29764 | 114.21436 | 1334 ft | 145 kts | 133° |
| 2026-04-27 22:36 | 22.29079 | 114.22236 | 1631 ft | 145 kts | 130° |
| 2026-04-27 22:36 | 22.28415 | 114.23053 | 1881 ft | 144 kts | 129° |
| 2026-04-27 22:37 | 22.27784 | 114.23895 | 2154 ft | 145 kts | 127° |
| 2026-04-27 22:37 | 22.27192 | 114.24762 | 2415 ft | 145 kts | 126° |
| 2026-04-27 22:37 | 22.26588 | 114.25640 | 2665 ft | 145 kts | 128° |
| 2026-04-27 22:37 | 22.25820 | 114.26321 | 3032 ft | 144 kts | 156° |
| 2026-04-27 22:38 | 22.24835 | 114.26369 | 3674 ft | 145 kts | 194° |
| 2026-04-27 22:38 | 22.23851 | 114.25930 | 4244 ft | 180 kts | 202° |
| 2026-04-27 22:38 | 22.22680 | 114.25348 | 4199 ft | 189 kts | 202° |
| 2026-04-27 22:38 | 22.21481 | 114.24753 | 4095 ft | 187 kts | 203° |
| 2026-04-27 22:39 | 22.20336 | 114.24179 | 4109 ft | 184 kts | 202° |
| 2026-04-27 22:39 | 22.19172 | 114.23595 | 4132 ft | 185 kts | 203° |
| 2026-04-27 22:39 | 22.18154 | 114.22740 | 4126 ft | 191 kts | 234° |
| 2026-04-27 22:39 | 22.17832 | 114.21366 | 4145 ft | 198 kts | 272° |
| 2026-04-27 22:40 | 22.18120 | 114.19906 | 4198 ft | 200 kts | 281° |
| 2026-04-27 22:40 | 22.18453 | 114.18422 | 4137 ft | 204 kts | 280° |
| 2026-04-27 22:40 | 22.18782 | 114.16941 | 4064 ft | 201 kts | 279° |
| 2026-04-27 22:40 | 22.18809 | 114.15484 | 3996 ft | 191 kts | 252° |
| 2026-04-27 22:41 | 22.18454 | 114.14093 | 4032 ft | 196 kts | 251° |
| 2026-04-27 22:41 | 22.18098 | 114.12659 | 4010 ft | 198 kts | 251° |
| 2026-04-27 22:41 | 22.17744 | 114.11210 | 3999 ft | 200 kts | 252° |
| 2026-04-27 22:41 | 22.17386 | 114.09766 | 3989 ft | 196 kts | 252° |
| 2026-04-27 22:42 | 22.17038 | 114.08368 | 3991 ft | 195 kts | 252° |
| 2026-04-27 22:42 | 22.16683 | 114.06955 | 3995 ft | 195 kts | 251° |
| 2026-04-27 22:42 | 22.16329 | 114.05535 | 4010 ft | 196 kts | 252° |
| 2026-04-27 22:42 | 22.16045 | 114.04055 | 4027 ft | 209 kts | 257° |
| 2026-04-27 22:43 | 22.15782 | 114.02474 | 4015 ft | 216 kts | 256° |
| 2026-04-27 22:43 | 22.15502 | 114.00868 | 4006 ft | 218 kts | 256° |
| 2026-04-27 22:43 | 22.15212 | 113.99286 | 4000 ft | 217 kts | 255° |
| 2026-04-27 22:43 | 22.14906 | 113.97692 | 3998 ft | 217 kts | 255° |
| 2026-04-27 22:44 | 22.14593 | 113.96103 | 3989 ft | 217 kts | 255° |
| 2026-04-27 22:44 | 22.14273 | 113.94517 | 3999 ft | 216 kts | 255° |
| 2026-04-27 22:44 | 22.13948 | 113.92934 | 3999 ft | 216 kts | 255° |
| 2026-04-27 22:44 | 22.13621 | 113.91354 | 3995 ft | 216 kts | 254° |
| 2026-04-27 22:45 | 22.13192 | 113.89299 | 4003 ft | 215 kts | 254° |
| 2026-04-27 22:45 | 22.12157 | 113.84390 | 3999 ft | 215 kts | 254° |
| 2026-04-27 22:45 | 22.11824 | 113.82815 | 3995 ft | 215 kts | 254° |
| 2026-04-27 22:45 | 22.11269 | 113.80158 | 3962 ft | 206 kts | 258° |
| 2026-04-27 22:46 | 22.12205 | 113.77769 | 3871 ft | 203 kts | 326° |
| 2026-04-27 22:46 | 22.14912 | 113.77085 | 3926 ft | 203 kts | 356° |
| 2026-04-27 22:46 | 22.17788 | 113.76827 | 3804 ft | 209 kts | 355° |
| 2026-04-27 22:46 | 22.20722 | 113.76543 | 3382 ft | 212 kts | 356° |
| 2026-04-27 22:47 | 22.23337 | 113.76283 | 2875 ft | 198 kts | 359° |
| 2026-04-27 22:47 | 22.24625 | 113.76597 | 2622 ft | 188 kts | 39° |
| 2026-04-27 22:47 | 22.25390 | 113.77639 | 2417 ft | 175 kts | 69° |
| 2026-04-27 22:47 | 22.25902 | 113.78801 | 2183 ft | 168 kts | 68° |
| 2026-04-27 22:48 | 22.26386 | 113.79913 | 1924 ft | 160 kts | 71° |
| 2026-04-27 22:48 | 22.26782 | 113.81025 | 1703 ft | 158 kts | 73° |
| 2026-04-27 22:48 | 22.27149 | 113.82145 | 1492 ft | 159 kts | 73° |
| 2026-04-27 22:48 | 22.27511 | 113.83266 | 1287 ft | 159 kts | 73° |
| 2026-04-27 22:49 | 22.27868 | 113.84368 | 1075 ft | 152 kts | 73° |
| 2026-04-27 22:49 | 22.28209 | 113.85425 | 926 ft | 147 kts | 73° |
| 2026-04-27 22:49 | 22.28548 | 113.86472 | 721 ft | 145 kts | 73° |
| 2026-04-27 22:49 | 22.28876 | 113.87489 | 542 ft | 143 kts | 72° |
| 2026-04-27 22:50 | 22.29210 | 113.88503 | 371 ft | 144 kts | 72° |
| 2026-04-27 22:50 | 22.29538 | 113.89508 | 170 ft | 141 kts | 73° |
| 2026-04-27 22:50 | 22.29847 | 113.90502 | 41 ft | 135 kts | 73° |
| 2026-04-27 22:50 | 22.30117 | 113.91336 | 40 ft | 95 kts | 71° |
| 2026-04-27 22:51 | 22.30269 | 113.91805 | 40 ft | 40 kts | 71° |
| 2026-04-27 22:51 | 22.30380 | 113.92006 | 40 ft | 21 kts | 47° |
| 2026-04-27 22:51 | 22.30488 | 113.92112 | 40 ft | 21 kts | 41° |
| 2026-04-27 22:51 | 22.30586 | 113.92224 | 40 ft | 21 kts | 63° |
| 2026-04-27 22:52 | 22.30628 | 113.92335 | 40 ft | 12 kts | 68° |
| 2026-04-27 22:52 | 22.30697 | 113.92358 | 40 ft | 12 kts | 337° |
| 2026-04-27 22:52 | 22.30779 | 113.92336 | 40 ft | 12 kts | 346° |
| 2026-04-27 22:52 | 22.30864 | 113.92341 | 40 ft | 13 kts | 21° |
| 2026-04-27 22:53 | 22.30943 | 113.92380 | 40 ft | 10 kts | 25° |
| 2026-04-27 22:53 | 22.30974 | 113.92405 | 40 ft | 5 kts | 56° |
| 2026-04-27 22:53 | 22.30973 | 113.92445 | 40 ft | 6 kts | 105° |
| 2026-04-27 22:53 | 22.30964 | 113.92469 | 40 ft | 0 kts | 114° |
| 2026-04-27 22:54 | 22.30963 | 113.92470 | 40 ft | 0 kts | 114° |
| 2026-04-27 22:54 | 22.30961 | 113.92475 | 40 ft | 1 kts | 114° |
| 2026-04-27 22:54 | 22.30956 | 113.92487 | 40 ft | 2 kts | 114° |
| 2026-04-27 22:54 | 22.30955 | 113.92491 | 40 ft | 0 kts | 114° |